createdAt,value
2017-11-25T00:00:21.540Z,19.07
2017-11-25T00:06:25.822Z,19.90
2017-11-25T00:12:29.323Z,22.37
2017-11-25T00:18:33.621Z,24.13
2017-11-25T00:24:38.293Z,23.30
2017-11-25T00:30:41.785Z,22.63
2017-11-25T00:36:45.280Z,22.97
2017-11-25T00:42:48.767Z,21.43
2017-11-25T00:48:52.261Z,17.47
2017-11-25T00:54:55.776Z,16.00
2017-11-25T01:00:59.282Z,15.67
2017-11-25T01:07:02.809Z,17.90
2017-11-25T01:13:06.369Z,21.93
2017-11-25T01:19:09.890Z,22.30
2017-11-25T01:25:13.649Z,22.77
2017-11-25T01:31:17.140Z,22.40
2017-11-25T01:37:20.655Z,21.43
2017-11-25T01:43:24.922Z,23.40
2017-11-25T01:49:28.431Z,22.47
2017-11-25T01:55:33.418Z,24.60
2017-11-25T02:01:36.921Z,23.33
2017-11-25T02:07:40.418Z,25.57
2017-11-25T02:13:43.932Z,22.67
2017-11-25T02:19:48.162Z,23.20
2017-11-25T02:25:51.682Z,23.93
2017-11-25T02:31:55.171Z,20.77
2017-11-25T02:37:58.652Z,21.03
2017-11-25T02:44:02.153Z,22.37
2017-11-25T02:50:06.389Z,23.43
2017-11-25T02:56:09.875Z,21.70
2017-11-25T03:02:13.393Z,22.70
2017-11-25T03:08:16.903Z,23.90
2017-11-25T03:14:21.238Z,25.50
2017-11-25T03:20:24.739Z,24.60
2017-11-25T03:26:28.248Z,20.70
2017-11-25T03:32:31.829Z,22.13
2017-11-25T03:38:35.339Z,23.23
2017-11-25T03:44:38.847Z,20.80
2017-11-25T03:50:43.133Z,20.10
2017-11-25T03:56:46.651Z,20.70
2017-11-25T04:02:50.144Z,18.27
2017-11-25T04:08:53.627Z,20.53
2017-11-25T04:14:57.144Z,22.20
2017-11-25T04:21:00.759Z,19.97
2017-11-25T04:27:04.245Z,22.00
2017-11-25T04:33:07.749Z,20.20
2017-11-25T04:39:12.007Z,21.33
2017-11-25T04:45:15.508Z,20.40
2017-11-25T04:51:19.042Z,19.57
2017-11-25T04:57:22.582Z,21.23
2017-11-25T05:03:26.090Z,19.40
2017-11-25T05:09:29.573Z,19.30
2017-11-25T05:15:33.105Z,17.80
2017-11-25T05:21:36.614Z,15.80
2017-11-25T05:27:40.198Z,15.43
2017-11-25T05:33:43.693Z,15.47
2017-11-25T05:39:47.951Z,15.37
2017-11-25T05:45:51.473Z,16.57
2017-11-25T05:51:54.958Z,15.87
2017-11-25T05:57:58.468Z,15.37
2017-11-25T06:04:01.991Z,15.63
2017-11-25T06:10:07.036Z,16.50
2017-11-25T06:16:10.564Z,17.60
2017-11-25T06:22:14.077Z,17.47
2017-11-25T06:28:17.564Z,16.67
2017-11-25T06:34:21.077Z,17.80
2017-11-25T06:40:24.568Z,20.77
2017-11-25T06:46:28.062Z,23.70
2017-11-25T06:52:31.619Z,26.70
2017-11-25T06:58:35.115Z,21.87
2017-11-25T07:04:38.624Z,24.63
2017-11-25T07:10:42.923Z,17.43
2017-11-25T07:16:46.433Z,11.67
2017-11-25T07:22:49.934Z,11.57
2017-11-25T07:28:53.446Z,11.80
2017-11-25T07:34:56.944Z,9.97
2017-11-25T07:41:00.447Z,16.27
2017-11-25T07:47:04.711Z,9.20
2017-11-25T07:53:08.206Z,6.30
2017-11-25T07:59:11.736Z,6.03
2017-11-25T08:05:15.991Z,4.57
2017-11-25T08:11:19.497Z,3.70
2017-11-25T08:17:23.000Z,3.70
2017-11-25T08:23:27.299Z,2.30
2017-11-25T08:29:31.567Z,3.50
2017-11-25T08:35:35.077Z,2.33
2017-11-25T08:41:39.353Z,3.20
2017-11-25T08:47:42.851Z,3.33
2017-11-25T08:53:47.103Z,2.10
2017-11-25T08:59:50.605Z,2.07
2017-11-25T09:05:54.144Z,3.83
2017-11-25T09:11:58.449Z,4.40
2017-11-25T09:18:03.586Z,4.13
2017-11-25T09:24:07.096Z,5.57
2017-11-25T09:30:10.608Z,2.00
2017-11-25T09:36:14.213Z,1.50
2017-11-25T09:42:17.713Z,1.67
2017-11-25T09:48:21.969Z,2.10
2017-11-25T09:54:25.469Z,2.50
2017-11-25T10:00:28.985Z,2.10
2017-11-25T10:06:33.250Z,2.03
2017-11-25T10:12:36.751Z,2.47
2017-11-25T10:18:40.240Z,2.20
2017-11-25T10:24:43.742Z,2.93
2017-11-25T10:30:48.000Z,2.43
2017-11-25T10:36:51.497Z,2.53
2017-11-25T10:42:55.012Z,2.30
2017-11-25T10:48:59.265Z,3.07
2017-11-25T10:55:03.913Z,4.27
2017-11-25T11:01:07.405Z,7.03
2017-11-25T11:07:11.696Z,20.43
2017-11-25T11:13:15.191Z,5.03
2017-11-25T11:19:19.495Z,12.77
2017-11-25T11:25:23.773Z,6.00
2017-11-25T11:31:27.305Z,6.10
2017-11-25T11:37:30.855Z,19.30
2017-11-25T11:43:34.628Z,14.80
2017-11-25T11:49:38.196Z,17.50
2017-11-25T11:55:41.709Z,4.17
2017-11-25T12:01:45.206Z,5.07
2017-11-25T12:07:48.741Z,4.37
2017-11-25T12:13:52.225Z,5.93
2017-11-25T12:19:55.709Z,4.17
2017-11-25T12:25:59.240Z,3.33
2017-11-25T12:32:02.832Z,3.43
2017-11-25T12:38:06.320Z,4.80
2017-11-25T12:44:10.649Z,8.13
2017-11-25T12:50:14.149Z,3.60
2017-11-25T12:56:17.625Z,3.60
2017-11-25T13:02:21.129Z,3.80
2017-11-25T13:08:24.615Z,6.20
2017-11-25T13:14:28.105Z,6.90
2017-11-25T13:20:31.611Z,6.50
2017-11-25T13:26:35.154Z,6.80
2017-11-25T13:32:38.669Z,23.57
2017-11-25T13:38:42.155Z,7.93
2017-11-25T13:44:45.664Z,5.40
2017-11-25T13:50:49.969Z,5.60
2017-11-25T13:56:54.248Z,5.50
2017-11-25T14:02:57.744Z,6.73
2017-11-25T14:09:01.269Z,8.30
2017-11-25T14:15:04.781Z,4.43
2017-11-25T14:21:08.276Z,2.67
2017-11-25T14:27:11.768Z,8.50
2017-11-25T14:33:15.295Z,5.73
2017-11-25T14:39:19.550Z,6.07
2017-11-25T14:45:23.024Z,4.80
2017-11-25T14:51:26.574Z,5.83
2017-11-25T14:57:30.144Z,8.60
2017-11-25T15:03:34.555Z,10.83
2017-11-25T15:09:38.812Z,7.83
2017-11-25T15:15:42.309Z,11.77
2017-11-25T15:21:45.807Z,10.13
2017-11-25T15:27:50.065Z,9.40
2017-11-25T15:33:53.535Z,7.47
2017-11-25T15:39:57.028Z,6.57
2017-11-25T15:46:00.656Z,8.37
2017-11-25T15:52:04.165Z,8.80
2017-11-25T15:58:08.437Z,8.03
2017-11-25T16:04:11.914Z,10.70
2017-11-25T16:10:15.396Z,11.07
2017-11-25T16:16:18.893Z,8.33
2017-11-25T16:22:22.395Z,8.50
2017-11-25T16:28:26.648Z,8.80
2017-11-25T16:34:30.148Z,8.10
2017-11-25T16:40:33.666Z,15.67
2017-11-25T16:46:37.179Z,16.40
2017-11-25T16:52:40.699Z,11.93
2017-11-25T16:58:44.201Z,11.40
2017-11-25T17:04:47.688Z,8.30
2017-11-25T17:10:51.959Z,9.50
2017-11-25T17:16:55.448Z,9.70
2017-11-25T17:23:00.014Z,11.10
2017-11-25T17:29:04.321Z,11.63
2017-11-25T17:35:08.607Z,10.80
2017-11-25T17:41:12.103Z,12.80
2017-11-25T17:53:45.374Z,14.03
2017-11-25T17:59:49.677Z,14.10
2017-11-25T18:05:53.965Z,17.37
2017-11-25T18:11:58.293Z,13.10
2017-11-25T18:18:01.813Z,17.17
2017-11-25T18:24:05.381Z,14.70
2017-11-25T18:30:08.896Z,15.23
2017-11-25T18:36:12.432Z,16.60
2017-11-25T18:42:15.993Z,18.03
2017-11-25T18:48:19.533Z,15.20
2017-11-25T18:54:23.086Z,15.23
2017-11-25T19:00:26.648Z,16.40
2017-11-25T19:06:30.178Z,23.97
2017-11-25T19:12:33.698Z,22.80
2017-11-25T19:18:37.241Z,23.37
2017-11-25T19:24:40.779Z,23.70
2017-11-25T19:30:44.333Z,24.37
2017-11-25T19:36:47.871Z,23.40
2017-11-25T19:42:52.157Z,24.60
2017-11-25T19:48:55.699Z,23.37
2017-11-25T19:54:59.244Z,21.93
2017-11-25T20:07:13.260Z,20.83
2017-11-25T20:13:18.325Z,24.00
2017-11-25T20:19:21.917Z,21.40
2017-11-25T20:25:25.475Z,30.50
2017-11-25T20:31:29.790Z,24.57
2017-11-25T20:37:34.176Z,17.87
2017-11-25T20:43:37.723Z,19.20
2017-11-25T20:49:41.284Z,20.83
2017-11-25T20:55:48.085Z,19.60
2017-11-25T21:01:52.345Z,18.57
2017-11-25T21:07:55.902Z,21.47
2017-11-25T21:14:00.229Z,24.53
2017-11-25T21:20:03.779Z,21.33
2017-11-25T21:26:07.305Z,21.53
2017-11-25T21:32:10.860Z,26.33
2017-11-25T21:38:15.173Z,21.93
2017-11-25T21:44:19.479Z,20.47
2017-11-25T21:50:23.813Z,22.40
2017-11-25T21:56:27.348Z,22.73
2017-11-25T22:02:30.925Z,21.90
2017-11-25T22:08:34.455Z,36.23
2017-11-25T22:14:38.019Z,23.60
2017-11-25T22:20:42.340Z,21.80
2017-11-25T22:26:45.886Z,22.70
2017-11-25T22:32:49.416Z,21.70
2017-11-25T22:38:52.936Z,18.30
2017-11-25T22:44:56.477Z,19.00
2017-11-25T22:51:00.059Z,19.57
2017-11-25T22:57:04.356Z,20.33
2017-11-25T23:03:08.634Z,20.67
2017-11-25T23:09:12.173Z,18.77
2017-11-25T23:15:15.762Z,16.93
2017-11-25T23:21:19.333Z,22.17
2017-11-25T23:27:22.901Z,19.10
2017-11-25T23:33:27.202Z,19.20
2017-11-25T23:39:31.493Z,16.20
2017-11-25T23:45:35.012Z,21.70
2017-11-25T23:51:38.553Z,19.37
2017-11-25T23:57:42.110Z,16.97
